Chesaw, Washington
Current Conditions -  °F | °C
As of 7:53 AM on Sunday 23 Nov 2014 (Local Time) from KOMK Reporting Station
Scattered Clouds Scattered Clouds  
Wind Chill: 25°   Ceiling: Unl
Heat Index: 25°   Visibility: 10mi
Dew Point: 21°   Wind: 3mph
Humidity: 85%   Direction: 270°W
Pressure: 30.03"   Gusts: NA
Location:  48.9273°N, 119.255°W
Report Text: KOMK 231553Z AUTO 27003KT 10SM SCT002 M04/M06 A3003 RMK AO2 SLP189 T10391061
Loading
Personal Weather Stations






























Interactive Weather Map New forecast layout! Learn more

10-Day Weather Forecast

Advertisements
Track Severe Weather on mobile